Aviation Digital Data Service (ADDS)

Output produced by METARs form (1715 UTC 24 February 2017)
found at http://aviationweather.gov/adds/metars/
 
KPVD 241502Z 2415/2512 22012G19KT P6SM FEW100 FEW150 BKN300 
     FM250300 20006KT P6SM BKN040 
     FM250500 19006KT P6SM BKN020 
     FM250700 19005KT 5SM BR BKN010